createdAt,value
2023-01-12T00:02:20.924Z,6.10
2023-01-12T00:04:49.703Z,6.10
2023-01-12T00:07:20.282Z,6.10
2023-01-12T00:09:48.425Z,6.10
2023-01-12T00:12:16.855Z,6.10
2023-01-12T00:14:45.228Z,6.00
2023-01-12T00:17:17.013Z,6.00
2023-01-12T00:19:45.368Z,6.00
2023-01-12T00:22:18.344Z,6.10
2023-01-12T00:24:50.121Z,6.10
2023-01-12T00:27:20.265Z,6.10
2023-01-12T00:29:48.722Z,6.10
2023-01-12T00:32:19.554Z,6.10
2023-01-12T00:34:48.168Z,6.10
2023-01-12T00:37:17.581Z,6.10
2023-01-12T00:40:00.960Z,6.10
2023-01-12T00:42:47.247Z,6.10
2023-01-12T00:45:24.995Z,6.00
2023-01-12T00:47:54.374Z,6.00
2023-01-12T00:50:22.848Z,6.00
2023-01-12T00:52:50.971Z,6.00
2023-01-12T00:55:20.404Z,6.00
2023-01-12T00:57:48.602Z,5.90
2023-01-12T01:00:18.127Z,5.90
2023-01-12T01:02:46.156Z,5.80
2023-01-12T01:05:14.443Z,5.80
2023-01-12T01:07:42.611Z,5.70
2023-01-12T01:10:12.840Z,5.70
2023-01-12T01:12:42.715Z,5.70
2023-01-12T01:15:11.799Z,5.70
2023-01-12T01:17:40.266Z,5.70
2023-01-12T01:20:09.720Z,5.70
2023-01-12T01:22:37.870Z,5.80
2023-01-12T01:25:06.728Z,5.70
2023-01-12T01:27:34.860Z,5.70
2023-01-12T01:30:05.152Z,5.70
2023-01-12T01:32:33.640Z,5.80
2023-01-12T01:35:01.727Z,5.80
2023-01-12T01:37:30.011Z,5.80
2023-01-12T01:39:58.817Z,5.80
2023-01-12T01:42:30.048Z,6.00
2023-01-12T01:45:00.370Z,5.90
2023-01-12T01:47:37.684Z,5.90
2023-01-12T01:50:18.166Z,5.90
2023-01-12T01:52:50.015Z,6.00
2023-01-12T01:55:22.699Z,5.90
2023-01-12T01:57:56.231Z,5.90
2023-01-12T02:00:25.971Z,6.00
2023-01-12T02:02:56.564Z,6.00
2023-01-12T02:05:28.471Z,6.00
2023-01-12T02:08:01.354Z,6.00
2023-01-12T02:10:29.571Z,6.00
2023-01-12T02:13:15.663Z,6.00
2023-01-12T02:16:21.446Z,6.10
2023-01-12T02:19:08.461Z,6.00
2023-01-12T02:22:12.292Z,6.00
2023-01-12T02:24:57.837Z,6.00
2023-01-12T02:27:42.677Z,5.90
2023-01-12T02:31:00.706Z,5.90
2023-01-12T02:33:41.888Z,5.80
2023-01-12T02:36:19.217Z,5.80
2023-01-12T02:38:52.566Z,5.90
2023-01-12T02:41:46.078Z,5.90
2023-01-12T02:44:26.903Z,5.90
2023-01-12T02:46:59.033Z,6.00
2023-01-12T02:49:36.130Z,6.00
2023-01-12T02:52:10.203Z,5.90
2023-01-12T02:54:40.763Z,5.90
2023-01-12T02:57:12.097Z,5.90
2023-01-12T02:59:43.567Z,5.90
2023-01-12T03:02:15.277Z,5.90
2023-01-12T03:04:44.996Z,5.90
2023-01-12T03:07:32.655Z,5.80
2023-01-12T03:10:07.098Z,5.80
2023-01-12T03:12:37.967Z,5.70
2023-01-12T03:15:10.813Z,5.60
2023-01-12T03:17:45.646Z,5.50
2023-01-12T03:20:21.520Z,5.50
2023-01-12T03:22:52.310Z,5.40
2023-01-12T03:25:21.585Z,5.30
2023-01-12T03:28:05.007Z,5.20
2023-01-12T03:30:38.893Z,5.10
2023-01-12T03:33:08.426Z,5.00
2023-01-12T03:35:42.263Z,4.90
2023-01-12T03:38:19.489Z,4.90
2023-01-12T03:40:54.196Z,4.80
2023-01-12T03:43:29.215Z,4.80
2023-01-12T03:46:02.806Z,4.70
2023-01-12T03:48:37.805Z,4.70
2023-01-12T03:51:14.728Z,4.80
2023-01-12T03:53:44.965Z,4.80
2023-01-12T03:56:17.268Z,4.90
2023-01-12T03:58:47.579Z,4.90
2023-01-12T04:01:16.859Z,4.90
2023-01-12T04:03:45.812Z,4.90
2023-01-12T04:06:18.949Z,4.90
2023-01-12T04:08:47.085Z,5.00
2023-01-12T04:11:32.928Z,5.10
2023-01-12T04:14:01.403Z,5.10
2023-01-12T04:16:29.565Z,5.10
2023-01-12T04:18:57.805Z,5.10
2023-01-12T04:21:41.349Z,5.10
2023-01-12T04:24:09.603Z,5.00
2023-01-12T04:26:37.694Z,4.90
2023-01-12T04:29:05.953Z,4.80
2023-01-12T04:31:34.179Z,4.70
2023-01-12T04:34:02.305Z,4.70
2023-01-12T04:36:32.745Z,4.70
2023-01-12T04:39:00.814Z,4.60
2023-01-12T04:41:29.061Z,4.60
2023-01-12T04:43:57.198Z,4.50
2023-01-12T04:46:26.491Z,4.40
2023-01-12T04:48:55.341Z,4.40
2023-01-12T04:51:23.997Z,4.30
2023-01-12T04:53:54.174Z,4.20
2023-01-12T04:56:22.399Z,4.20
2023-01-12T04:58:50.704Z,4.10
2023-01-12T05:01:21.264Z,4.00
2023-01-12T05:03:49.548Z,3.90
2023-01-12T05:06:17.884Z,3.90
2023-01-12T05:09:03.663Z,3.80
2023-01-12T05:11:33.408Z,3.70
2023-01-12T05:14:02.389Z,3.60
2023-01-12T05:16:30.610Z,3.60
2023-01-12T05:18:58.730Z,3.50
2023-01-12T05:21:26.915Z,3.50
2023-01-12T05:23:54.987Z,3.40
2023-01-12T05:26:23.099Z,3.40
2023-01-12T05:28:52.921Z,3.30
2023-01-12T05:31:21.154Z,3.30
2023-01-12T05:33:49.845Z,3.20
2023-01-12T05:36:18.617Z,3.20
2023-01-12T05:38:46.743Z,3.20
2023-01-12T05:41:14.875Z,3.30
2023-01-12T05:43:51.821Z,3.20
2023-01-12T05:46:23.844Z,3.20
2023-01-12T05:48:52.974Z,3.10
2023-01-12T05:51:21.926Z,3.10
2023-01-12T05:53:50.065Z,3.10
2023-01-12T05:56:19.568Z,3.00
2023-01-12T05:58:51.307Z,3.00
2023-01-12T06:01:20.167Z,3.00
2023-01-12T06:03:51.748Z,3.00
2023-01-12T06:06:20.540Z,3.00
2023-01-12T06:08:50.693Z,3.00
2023-01-12T06:11:38.669Z,2.90
2023-01-12T06:14:07.387Z,2.90
2023-01-12T06:16:38.949Z,2.80
2023-01-12T06:19:08.765Z,2.70
2023-01-12T06:21:37.735Z,2.60
2023-01-12T06:24:06.521Z,2.60
2023-01-12T06:26:34.707Z,2.60
2023-01-12T06:29:03.553Z,2.60
2023-01-12T06:31:31.982Z,2.60
2023-01-12T06:34:00.179Z,2.60
2023-01-12T06:36:29.642Z,2.60
2023-01-12T06:38:57.710Z,2.70
2023-01-12T06:41:43.495Z,2.70
2023-01-12T06:44:11.582Z,2.70
2023-01-12T06:46:39.724Z,2.70
2023-01-12T06:49:07.936Z,2.70
2023-01-12T06:51:37.601Z,2.80
2023-01-12T06:54:05.481Z,2.80
2023-01-12T06:56:33.725Z,2.80
2023-01-12T06:59:01.810Z,2.80
2023-01-12T07:01:29.931Z,2.70
2023-01-12T07:03:58.410Z,2.60
2023-01-12T07:06:26.465Z,2.60
2023-01-12T07:08:55.946Z,2.60
2023-01-12T07:11:24.267Z,2.60
2023-01-12T07:13:52.395Z,2.60
2023-01-12T07:16:20.515Z,2.60
2023-01-12T07:18:48.639Z,2.70
2023-01-12T07:21:19.508Z,3.10
2023-01-12T07:23:47.670Z,3.20
2023-01-12T07:26:17.234Z,3.20
2023-01-12T07:28:45.337Z,3.30
2023-01-12T07:31:13.403Z,3.20
2023-01-12T07:33:41.485Z,3.30
2023-01-12T07:36:09.987Z,3.30
2023-01-12T07:38:38.796Z,3.40
2023-01-12T07:41:27.034Z,3.50
2023-01-12T07:43:56.488Z,3.60
2023-01-12T07:46:25.200Z,3.70
2023-01-12T07:48:53.292Z,3.90
2023-01-12T07:51:21.501Z,4.00
2023-01-12T07:53:49.607Z,3.90
2023-01-12T07:56:19.093Z,3.90
2023-01-12T07:58:48.766Z,4.00
2023-01-12T08:01:18.369Z,4.10
2023-01-12T08:03:46.309Z,4.10
2023-01-12T08:06:15.256Z,4.20
2023-01-12T08:08:43.322Z,4.20
2023-01-12T08:11:12.794Z,4.20
2023-01-12T08:13:41.655Z,4.30
2023-01-12T08:16:17.384Z,4.30
2023-01-12T08:18:52.590Z,4.30
2023-01-12T08:21:24.010Z,4.40
2023-01-12T08:23:57.226Z,4.50
2023-01-12T08:26:29.665Z,4.70
2023-01-12T08:29:02.648Z,4.80
2023-01-12T08:31:33.188Z,4.90
2023-01-12T08:34:02.704Z,5.10
2023-01-12T08:36:31.525Z,5.20
2023-01-12T08:39:01.372Z,5.20
2023-01-12T08:41:37.510Z,5.30
2023-01-12T08:44:09.806Z,5.40
2023-01-12T08:46:40.542Z,5.50
2023-01-12T08:49:16.945Z,5.60
2023-01-12T08:51:46.192Z,5.60
2023-01-12T08:54:17.691Z,5.80
2023-01-12T08:56:46.325Z,5.90
2023-01-12T08:59:14.464Z,6.00
2023-01-12T09:01:42.755Z,6.20
2023-01-12T09:04:12.499Z,6.20
2023-01-12T09:06:42.586Z,6.30
2023-01-12T09:09:12.585Z,6.40
2023-01-12T09:11:42.786Z,6.40
2023-01-12T09:14:10.939Z,6.50
2023-01-12T09:16:39.264Z,6.60
2023-01-12T09:19:07.555Z,6.70
2023-01-12T09:21:38.861Z,6.80
2023-01-12T09:24:07.944Z,6.80
2023-01-12T09:26:39.824Z,6.90
2023-01-12T09:29:08.895Z,6.90
2023-01-12T09:31:38.603Z,7.00
2023-01-12T09:34:06.901Z,7.00
2023-01-12T09:36:37.965Z,7.10
2023-01-12T09:39:09.874Z,7.10
2023-01-12T09:41:57.570Z,7.30
2023-01-12T09:44:46.292Z,7.30
2023-01-12T09:47:22.565Z,7.20
2023-01-12T09:50:01.341Z,7.20
2023-01-12T09:52:40.826Z,7.20
2023-01-12T09:55:15.788Z,7.30
2023-01-12T09:58:02.217Z,7.40
2023-01-12T10:00:30.316Z,7.50
2023-01-12T10:03:12.791Z,7.50
2023-01-12T10:05:46.030Z,7.60
2023-01-12T10:08:25.453Z,7.70
2023-01-12T10:10:59.940Z,7.80
2023-01-12T10:13:36.619Z,7.80
2023-01-12T10:16:11.562Z,7.80
2023-01-12T10:18:47.428Z,7.90
2023-01-12T10:21:15.987Z,8.00
2023-01-12T10:23:46.259Z,8.10
2023-01-12T10:26:23.098Z,8.30
2023-01-12T10:28:53.407Z,8.50
2023-01-12T10:31:23.722Z,8.80
2023-01-12T10:34:07.140Z,9.20
2023-01-12T10:36:36.713Z,10.00
2023-01-12T10:39:06.067Z,10.80
2023-01-12T10:41:35.060Z,11.90
2023-01-12T10:44:16.067Z,13.30
2023-01-12T10:46:45.501Z,13.80
2023-01-12T10:49:19.271Z,13.70
2023-01-12T10:51:55.686Z,13.70
2023-01-12T10:54:27.615Z,14.30
2023-01-12T10:57:00.312Z,15.00
2023-01-12T10:59:31.551Z,15.70
2023-01-12T11:02:15.321Z,15.60
2023-01-12T11:04:44.908Z,16.40
2023-01-12T11:07:14.077Z,17.00
2023-01-12T11:09:44.742Z,16.10
2023-01-12T11:12:23.623Z,15.40
2023-01-12T11:15:03.888Z,14.70
2023-01-12T11:17:56.085Z,14.40
2023-01-12T11:20:30.216Z,14.10
2023-01-12T11:23:03.184Z,14.00
2023-01-12T11:25:37.260Z,13.40
2023-01-12T11:28:11.724Z,12.60
2023-01-12T11:30:46.069Z,11.90
2023-01-12T11:33:19.533Z,11.60
2023-01-12T11:35:52.556Z,11.50
2023-01-12T11:38:27.294Z,11.20
2023-01-12T11:40:59.688Z,10.90
2023-01-12T11:43:51.326Z,10.60
2023-01-12T11:46:26.524Z,10.40
2023-01-12T11:49:08.507Z,10.30
2023-01-12T11:51:37.231Z,10.40
2023-01-12T11:54:07.822Z,10.20
2023-01-12T11:57:13.071Z,10.10
2023-01-12T11:59:48.280Z,9.90
2023-01-12T12:02:32.997Z,9.70
2023-01-12T12:05:12.912Z,9.50
2023-01-12T12:07:55.942Z,9.50
2023-01-12T12:10:27.577Z,9.70
2023-01-12T12:13:29.917Z,9.70
2023-01-12T12:16:16.546Z,10.10
2023-01-12T12:18:57.800Z,10.90
2023-01-12T12:21:44.709Z,11.20
2023-01-12T12:24:28.599Z,11.30
2023-01-12T12:27:07.521Z,11.20
2023-01-12T12:30:04.358Z,11.00
2023-01-12T12:32:37.848Z,11.00
2023-01-12T12:35:21.355Z,10.90
2023-01-12T12:38:05.657Z,10.70
2023-01-12T12:41:01.927Z,10.30
2023-01-12T12:43:50.493Z,10.10
2023-01-12T12:46:29.026Z,9.90
2023-01-12T12:49:01.229Z,9.70
2023-01-12T12:51:32.633Z,9.60
2023-01-12T12:54:03.484Z,9.30
2023-01-12T12:56:35.138Z,9.20
2023-01-12T12:59:03.826Z,9.00
2023-01-12T13:01:43.392Z,8.80
2023-01-12T13:04:13.214Z,8.70
2023-01-12T13:06:45.220Z,8.70
2023-01-12T13:09:38.569Z,8.50
2023-01-12T13:12:22.148Z,8.50
2023-01-12T13:15:20.222Z,8.50
2023-01-12T13:17:52.832Z,8.50
2023-01-12T13:20:53.294Z,8.40
2023-01-12T13:23:44.279Z,8.40
2023-01-12T13:26:40.486Z,8.30
2023-01-12T13:29:33.043Z,8.30
2023-01-12T13:32:33.251Z,8.30
2023-01-12T13:35:03.310Z,8.20
2023-01-12T13:37:45.656Z,8.20
2023-01-12T13:40:19.926Z,8.10
2023-01-12T13:43:06.659Z,8.10
2023-01-12T13:45:36.179Z,8.00
2023-01-12T13:48:06.759Z,8.00
2023-01-12T13:50:37.787Z,8.00
2023-01-12T13:53:06.337Z,8.00
2023-01-12T13:55:37.074Z,8.00
2023-01-12T13:58:15.651Z,7.90
2023-01-12T14:00:44.392Z,7.90
2023-01-12T14:03:24.705Z,7.90
2023-01-12T14:06:05.897Z,7.80
2023-01-12T14:08:56.900Z,7.90
2023-01-12T14:11:52.961Z,7.80
2023-01-12T14:14:51.890Z,7.80
2023-01-12T14:17:44.756Z,7.80
2023-01-12T14:20:16.983Z,7.70
2023-01-12T14:22:47.518Z,7.70
2023-01-12T14:25:19.450Z,7.70
2023-01-12T14:27:57.260Z,7.70
2023-01-12T14:30:28.495Z,7.70
2023-01-12T14:32:58.106Z,7.70
2023-01-12T14:35:31.279Z,7.70
2023-01-12T14:38:03.009Z,7.70
2023-01-12T14:40:34.341Z,7.80
2023-01-12T14:43:21.888Z,7.80
2023-01-12T14:46:24.107Z,7.70
2023-01-12T14:49:07.030Z,7.70
2023-01-12T14:51:40.180Z,7.70
2023-01-12T14:54:20.844Z,7.70
2023-01-12T14:56:56.444Z,7.70
2023-01-12T14:59:28.781Z,7.70
2023-01-12T15:02:21.966Z,7.70
2023-01-12T15:04:57.168Z,7.70
2023-01-12T15:07:27.502Z,7.60
2023-01-12T15:09:58.838Z,7.60
2023-01-12T15:12:53.938Z,7.50
2023-01-12T15:15:25.325Z,7.50
2023-01-12T15:18:12.856Z,7.50
2023-01-12T15:21:01.829Z,7.50
2023-01-12T15:23:50.631Z,7.50
2023-01-12T15:26:20.837Z,7.40
2023-01-12T15:28:49.373Z,7.40
2023-01-12T15:31:21.870Z,7.40
2023-01-12T15:33:50.062Z,7.40
2023-01-12T15:36:18.263Z,7.40
2023-01-12T15:38:46.387Z,7.40
2023-01-12T15:41:18.528Z,7.30
2023-01-12T15:43:47.949Z,7.30
2023-01-12T15:46:20.336Z,7.20
2023-01-12T15:48:48.383Z,7.30
2023-01-12T15:51:17.036Z,7.20
2023-01-12T15:53:45.078Z,7.30
2023-01-12T15:56:16.356Z,7.30
2023-01-12T15:58:44.471Z,7.30
2023-01-12T16:01:17.748Z,7.30
2023-01-12T16:04:07.263Z,7.30
2023-01-12T16:06:34.982Z,7.30
2023-01-12T16:09:03.055Z,7.30
2023-01-12T16:11:31.307Z,7.30
2023-01-12T16:13:59.366Z,7.20
2023-01-12T16:16:29.405Z,7.20
2023-01-12T16:18:59.810Z,7.20
2023-01-12T16:21:29.453Z,7.20
2023-01-12T16:23:57.923Z,7.30
2023-01-12T16:26:26.594Z,7.30
2023-01-12T16:28:54.799Z,7.30
2023-01-12T16:31:22.901Z,7.30
2023-01-12T16:33:52.483Z,7.20
2023-01-12T16:36:20.449Z,7.20
2023-01-12T16:38:48.506Z,7.20
2023-01-12T16:41:19.179Z,7.20
2023-01-12T16:43:47.655Z,7.20
2023-01-12T16:46:16.767Z,7.20
2023-01-12T16:48:46.225Z,7.20
2023-01-12T16:51:17.616Z,7.20
2023-01-12T16:53:46.565Z,7.10
2023-01-12T16:56:16.189Z,7.20
2023-01-12T16:58:48.186Z,7.10
2023-01-12T17:01:18.729Z,7.10
2023-01-12T17:03:47.034Z,7.10
2023-01-12T17:06:21.125Z,7.10
2023-01-12T17:08:50.126Z,7.00
2023-01-12T17:11:20.396Z,7.00
2023-01-12T17:13:52.363Z,7.00
2023-01-12T17:16:21.441Z,6.90
2023-01-12T17:18:50.914Z,6.90
2023-01-12T17:21:20.912Z,6.90
2023-01-12T17:23:49.232Z,6.90
2023-01-12T17:26:19.725Z,6.80
2023-01-12T17:28:48.631Z,6.80
2023-01-12T17:31:20.398Z,6.80
2023-01-12T17:33:50.078Z,6.80
2023-01-12T17:36:20.348Z,6.80
2023-01-12T17:38:49.009Z,6.80
2023-01-12T17:41:31.706Z,6.80
2023-01-12T17:44:01.387Z,6.80
2023-01-12T17:46:29.889Z,6.80
2023-01-12T17:48:59.753Z,6.80
2023-01-12T17:51:29.328Z,6.90
2023-01-12T17:53:58.791Z,6.90
2023-01-12T17:56:30.654Z,6.90
2023-01-12T17:58:58.898Z,7.00
2023-01-12T18:01:30.772Z,7.00
2023-01-12T18:04:00.848Z,6.90
2023-01-12T18:06:30.482Z,6.90
2023-01-12T18:09:00.570Z,6.90
2023-01-12T18:11:31.054Z,6.90
2023-01-12T18:13:59.771Z,6.80
2023-01-12T18:16:28.408Z,6.70
2023-01-12T18:18:56.870Z,6.70
2023-01-12T18:21:27.805Z,6.60
2023-01-12T18:23:57.604Z,6.60
2023-01-12T18:26:27.315Z,6.60
2023-01-12T18:28:57.373Z,6.50
2023-01-12T18:31:27.054Z,6.50
2023-01-12T18:34:01.297Z,6.40
2023-01-12T18:36:29.437Z,6.40
2023-01-12T18:38:58.901Z,6.40
2023-01-12T18:41:44.623Z,6.40
2023-01-12T18:44:12.681Z,6.30
2023-01-12T18:47:00.978Z,6.30
2023-01-12T18:49:30.354Z,6.20
2023-01-12T18:52:17.147Z,6.10
2023-01-12T18:54:48.348Z,6.10
2023-01-12T18:57:18.168Z,6.10
2023-01-12T18:59:46.358Z,6.00
2023-01-12T19:02:15.970Z,6.00
2023-01-12T19:05:10.418Z,5.90
2023-01-12T19:07:51.567Z,5.90
2023-01-12T19:10:21.113Z,6.00
2023-01-12T19:12:49.336Z,5.90
2023-01-12T19:15:35.627Z,5.90
2023-01-12T19:18:03.893Z,5.80
2023-01-12T19:20:33.029Z,5.70
2023-01-12T19:23:18.528Z,5.70
2023-01-12T19:26:05.416Z,5.80
2023-01-12T19:28:40.630Z,5.80
2023-01-12T19:31:11.771Z,5.90
2023-01-12T19:33:40.208Z,5.90
2023-01-12T19:36:10.325Z,5.90
2023-01-12T19:38:42.428Z,6.10
2023-01-12T19:41:13.256Z,6.20
2023-01-12T19:43:44.873Z,6.20
2023-01-12T19:46:14.096Z,6.20
2023-01-12T19:48:42.242Z,6.20
2023-01-12T19:51:11.470Z,6.30
2023-01-12T19:53:40.545Z,6.30
2023-01-12T19:56:12.653Z,6.20
2023-01-12T19:58:41.281Z,6.20
2023-01-12T20:01:09.517Z,6.20
2023-01-12T20:03:39.766Z,6.20
2023-01-12T20:06:09.124Z,6.30
2023-01-12T20:08:37.287Z,6.40
2023-01-12T20:11:06.038Z,6.30
2023-01-12T20:13:36.045Z,6.40
2023-01-12T20:16:07.480Z,6.30
2023-01-12T20:18:36.207Z,6.30
2023-01-12T20:21:09.388Z,6.30
2023-01-12T20:23:37.654Z,6.30
2023-01-12T20:26:07.743Z,6.30
2023-01-12T20:28:37.349Z,6.30
2023-01-12T20:31:10.687Z,6.30
2023-01-12T20:33:38.813Z,6.20
2023-01-12T20:36:11.212Z,6.10
2023-01-12T20:38:40.813Z,6.10
2023-01-12T20:41:09.574Z,6.10
2023-01-12T20:43:39.714Z,6.10
2023-01-12T20:46:09.077Z,6.00
2023-01-12T20:48:37.377Z,6.00
2023-01-12T20:51:08.469Z,5.90
2023-01-12T20:53:36.668Z,5.90
2023-01-12T20:56:05.384Z,5.80
2023-01-12T20:58:33.610Z,5.70
2023-01-12T21:01:03.403Z,5.60
2023-01-12T21:03:31.585Z,5.50
2023-01-12T21:06:01.008Z,5.40
2023-01-12T21:08:29.121Z,5.30
2023-01-12T21:11:00.430Z,5.30
2023-01-12T21:13:28.530Z,5.20
2023-01-12T21:16:01.332Z,5.20
2023-01-12T21:18:31.876Z,5.10
2023-01-12T21:20:59.986Z,5.10
2023-01-12T21:23:28.527Z,5.10
2023-01-12T21:25:56.629Z,5.00
2023-01-12T21:28:25.152Z,5.00
2023-01-12T21:30:53.444Z,4.90
2023-01-12T21:33:21.572Z,4.90
2023-01-12T21:35:57.684Z,4.90
2023-01-12T21:38:26.857Z,4.90
2023-01-12T21:40:55.643Z,4.90
2023-01-12T21:43:23.809Z,5.00
2023-01-12T21:45:54.338Z,5.10
2023-01-12T21:48:24.271Z,5.20
2023-01-12T21:50:52.388Z,5.30
2023-01-12T21:53:23.339Z,5.50
2023-01-12T21:55:55.434Z,5.70
2023-01-12T21:58:24.070Z,5.90
2023-01-12T22:00:52.548Z,6.00
2023-01-12T22:03:21.085Z,6.10
2023-01-12T22:05:49.540Z,6.20
2023-01-12T22:08:18.072Z,6.10
2023-01-12T22:10:47.880Z,6.10
2023-01-12T22:13:17.298Z,6.10
2023-01-12T22:15:48.469Z,6.00
2023-01-12T22:18:16.551Z,6.00
2023-01-12T22:20:44.743Z,6.00
2023-01-12T22:23:14.311Z,5.90
2023-01-12T22:25:42.443Z,5.90
2023-01-12T22:28:11.934Z,6.00
2023-01-12T22:30:39.894Z,6.00
2023-01-12T22:33:07.971Z,6.00
2023-01-12T22:35:37.689Z,5.90
2023-01-12T22:38:06.105Z,5.80
2023-01-12T22:40:34.298Z,5.90
2023-01-12T22:43:20.075Z,5.80
2023-01-12T22:45:53.407Z,5.80
2023-01-12T22:48:21.632Z,5.80
2023-01-12T22:50:49.915Z,6.00
2023-01-12T22:53:17.995Z,5.90
2023-01-12T22:55:46.077Z,5.90
2023-01-12T22:58:14.187Z,5.80
2023-01-12T23:00:43.933Z,5.80
2023-01-12T23:03:14.580Z,5.80
2023-01-12T23:05:47.562Z,5.80
2023-01-12T23:08:17.462Z,5.90
2023-01-12T23:10:45.903Z,5.90
2023-01-12T23:13:19.707Z,6.00
2023-01-12T23:15:50.186Z,6.10
2023-01-12T23:18:22.418Z,6.20
2023-01-12T23:20:50.980Z,6.30
2023-01-12T23:23:19.000Z,6.30
2023-01-12T23:25:48.021Z,6.40
2023-01-12T23:28:16.307Z,6.30
2023-01-12T23:30:44.984Z,6.30
2023-01-12T23:33:13.135Z,6.30
2023-01-12T23:35:44.422Z,6.20
2023-01-12T23:38:16.702Z,6.20
2023-01-12T23:40:44.978Z,6.10
2023-01-12T23:43:13.356Z,6.10
2023-01-12T23:45:41.524Z,6.10
2023-01-12T23:48:09.820Z,6.10
2023-01-12T23:50:37.940Z,6.10
2023-01-12T23:53:07.470Z,6.10
2023-01-12T23:55:38.074Z,6.20
2023-01-12T23:58:06.463Z,6.20
